Station: EBLB - 23/10/2018 20:36Z (il y a 22 minutes)
EBLB 232036Z AUTO 27006KT 3400 BR OVC006/// 08/07 Q1025 YLO
Vent du 270º - 6 kt
Visibilité: 3400 m (brume)
Ciel couvert à 600 pieds
Température: +08ºC - Point de rosée: +07ºC - QNH: 1025 hPa
Code couleur militaire: YLO (conditions IMC ou marginales)